Time;durP1;ratioP1;P1;durP2;ratioP2;P2;SDS_P1;SDS_P2;PMS_P1;PMS_P2;Temp;Humidity;BMP_temperature;BMP_pressure;BME280_temperature;BME280_humidity;BME280_pressure;Samples;Min_cycle;Max_cycle;Signal;HPM_P1;HPM_P2
2023/05/18 00:00:30;;;;;;;11.20;2.70;;;7.50;99.90;;;;;;5005288;28;181042;-72
2023/05/18 00:02:56;;;;;;;11.74;2.84;;;7.40;99.90;;;;;;5005981;28;217079;-69
2023/05/18 00:05:23;;;;;;;14.95;3.10;;;7.40;99.90;;;;;;5006781;28;29516;-69
2023/05/18 00:07:49;;;;;;;14.57;3.05;;;7.30;99.90;;;;;;5005764;28;20050;-70
2023/05/18 00:10:15;;;;;;;12.05;3.10;;;7.30;99.90;;;;;;4956188;28;229136;-70
2023/05/18 00:12:41;;;;;;;13.25;2.80;;;7.20;99.90;;;;;;4986065;28;20061;-69
2023/05/18 00:15:08;;;;;;;13.18;3.08;;;7.10;99.90;;;;;;4974124;28;213570;-71
2023/05/18 00:17:35;;;;;;;14.07;2.95;;;7.10;99.90;;;;;;4999393;28;20644;-70
2023/05/18 00:20:04;;;;;;;11.88;3.28;;;7.10;99.90;;;;;;4969628;28;142175;-69
2023/05/18 00:22:30;;;;;;;15.13;3.03;;;7.00;99.90;;;;;;4988569;28;20120;-69
2023/05/18 00:24:56;;;;;;;14.23;3.55;;;6.90;99.90;;;;;;4952956;28;208962;-70
2023/05/18 00:27:22;;;;;;;14.25;3.28;;;6.90;99.90;;;;;;4984836;28;20057;-70
2023/05/18 00:29:48;;;;;;;10.75;3.17;;;6.80;99.90;;;;;;4959451;28;217315;-70
2023/05/18 00:32:14;;;;;;;13.20;3.20;;;6.80;99.90;;;;;;4985245;28;20054;-69
2023/05/18 00:34:40;;;;;;;12.60;3.20;;;6.80;99.90;;;;;;4960540;28;207923;-69
2023/05/18 00:37:06;;;;;;;16.02;2.95;;;6.90;99.90;;;;;;5010553;28;20315;-70
2023/05/18 00:39:32;;;;;;;10.70;3.13;;;6.90;99.90;;;;;;4957176;28;205613;-69
2023/05/18 00:41:58;;;;;;;17.75;3.30;;;6.90;99.90;;;;;;5009909;28;20056;-69
2023/05/18 00:44:24;;;;;;;12.60;3.22;;;6.90;99.90;;;;;;4975999;28;208072;-70
2023/05/18 00:46:51;;;;;;;14.63;2.85;;;6.90;99.90;;;;;;5010972;28;20054;-72
2023/05/18 00:49:17;;;;;;;15.27;3.08;;;7.00;99.90;;;;;;4973649;28;209118;-70
2023/05/18 00:51:44;;;;;;;16.77;3.10;;;6.90;99.90;;;;;;5002965;28;20053;-70
2023/05/18 00:54:10;;;;;;;16.70;3.17;;;6.90;99.90;;;;;;4944122;28;219597;-72
2023/05/18 00:56:40;;;;;;;14.07;3.25;;;7.00;99.90;;;;;;5009817;28;20046;-69
2023/05/18 00:59:09;;;;;;;13.93;2.90;;;7.00;99.90;;;;;;4929454;28;209782;-68
2023/05/18 01:01:35;;;;;;;18.17;3.30;;;7.00;99.90;;;;;;5002602;28;20053;-69
2023/05/18 01:04:03;;;;;;;11.73;2.92;;;7.00;99.90;;;;;;4953896;28;206665;-68
2023/05/18 01:06:31;;;;;;;10.52;2.67;;;7.00;99.90;;;;;;5003054;28;20057;-71
2023/05/18 01:09:02;;;;;;;11.55;3.15;;;7.00;99.90;;;;;;4941148;28;215572;-71
2023/05/18 01:11:41;;;;;;;;;;;7.10;99.90;;;;;;4979097;28;20054;-71
2023/05/18 01:14:36;;;;;;;12.27;2.55;;;7.10;99.90;;;;;;4946553;28;215472;-70
2023/05/18 01:17:17;;;;;;;17.08;3.15;;;7.10;99.90;;;;;;4988725;28;20365;-70
2023/05/18 01:20:11;;;;;;;14.07;2.85;;;7.10;99.90;;;;;;4950483;28;207012;-70
2023/05/18 01:23:08;;;;;;;12.75;3.55;;;7.10;99.90;;;;;;5005917;28;20061;-70
2023/05/18 01:25:47;;;;;;;13.88;2.97;;;7.10;99.90;;;;;;4964661;28;22011;-70
2023/05/18 01:28:16;;;;;;;12.40;2.87;;;7.10;99.90;;;;;;4946906;28;209343;-71
2023/05/18 01:30:44;;;;;;;13.30;2.80;;;7.10;99.90;;;;;;5026028;28;20058;-70
2023/05/18 01:33:11;;;;;;;16.58;3.40;;;7.20;99.90;;;;;;4951091;28;206669;-71
2023/05/18 01:35:46;;;;;;;16.98;3.00;;;7.20;99.90;;;;;;5024568;28;20050;-70
2023/05/18 01:38:19;;;;;;;17.40;3.20;;;7.20;99.90;;;;;;4952774;28;209018;-69
2023/05/18 01:41:09;;;;;;;15.80;3.00;;;7.20;99.90;;;;;;5021862;28;20057;-69
2023/05/18 01:43:39;;;;;;;12.10;3.08;;;7.20;99.90;;;;;;4955664;28;210089;-70
2023/05/18 01:46:18;;;;;;;15.85;3.70;;;7.20;99.90;;;;;;5025363;28;20084;-70
2023/05/18 01:48:50;;;;;;;15.05;3.70;;;7.30;99.90;;;;;;4957953;28;207252;-71
2023/05/18 01:51:19;;;;;;;13.30;3.20;;;7.30;99.90;;;;;;5014183;28;20407;-70
2023/05/18 01:53:53;;;;;;;12.93;3.17;;;7.30;99.90;;;;;;4975223;28;209453;-70
2023/05/18 01:56:20;;;;;;;11.98;3.35;;;7.30;99.90;;;;;;5000243;28;20157;-69
2023/05/18 01:58:47;;;;;;;11.73;2.95;;;7.30;99.90;;;;;;4923345;28;209327;-70
2023/05/18 02:01:14;;;;;;;11.15;3.15;;;7.30;99.90;;;;;;5001649;28;20590;-70
2023/05/18 02:03:42;;;;;;;14.88;3.35;;;7.30;99.90;;;;;;4966403;28;205240;-70
2023/05/18 02:06:08;;;;;;;14.27;3.15;;;7.30;99.90;;;;;;5024372;28;20050;-70
2023/05/18 02:08:35;;;;;;;14.85;3.55;;;7.30;99.90;;;;;;4954416;28;207583;-72
2023/05/18 02:11:02;;;;;;;12.35;3.45;;;7.40;99.90;;;;;;4994013;28;20058;-69
2023/05/18 02:13:28;;;;;;;14.18;3.60;;;7.40;99.90;;;;;;4934924;28;209327;-69
2023/05/18 02:15:54;;;;;;;13.77;3.10;;;7.40;99.90;;;;;;5004376;28;20045;-70
2023/05/18 02:18:20;;;;;;;15.65;3.40;;;7.40;99.90;;;;;;4965079;28;212074;-69
2023/05/18 02:20:47;;;;;;;16.60;3.63;;;7.50;99.90;;;;;;5008466;28;20055;-71
2023/05/18 02:23:14;;;;;;;13.70;3.60;;;7.50;99.90;;;;;;4932624;28;207143;-70
2023/05/18 02:25:43;;;;;;;12.20;3.47;;;7.40;99.90;;;;;;5023505;28;20046;-70
2023/05/18 02:28:09;;;;;;;14.50;3.70;;;7.50;99.90;;;;;;4936967;28;208003;-69
2023/05/18 02:30:35;;;;;;;11.95;2.97;;;7.50;99.90;;;;;;5004988;28;20062;-68
2023/05/18 02:33:03;;;;;;;14.75;3.58;;;7.50;99.90;;;;;;4956896;28;206777;-69
2023/05/18 02:35:29;;;;;;;17.23;3.38;;;7.60;99.90;;;;;;4999143;28;20424;-69
2023/05/18 02:37:57;;;;;;;12.48;3.33;;;7.60;99.90;;;;;;4983331;28;20404;-70
2023/05/18 02:40:23;;;;;;;14.88;3.70;;;7.60;99.90;;;;;;4968645;28;179379;-71
2023/05/18 02:42:49;;;;;;;12.57;3.03;;;7.60;99.90;;;;;;5006710;28;20053;-71
2023/05/18 02:45:15;;;;;;;12.25;3.00;;;7.60;99.90;;;;;;4974748;28;209578;-70
2023/05/18 02:47:42;;;;;;;12.07;2.85;;;7.60;99.90;;;;;;5005587;28;20053;-70
2023/05/18 02:50:09;;;;;;;13.13;3.08;;;7.60;99.90;;;;;;4980001;28;207480;-72
2023/05/18 02:52:35;;;;;;;12.38;3.30;;;7.70;99.90;;;;;;5007891;28;20474;-69
2023/05/18 02:55:01;;;;;;;16.40;3.25;;;7.70;99.90;;;;;;4966872;28;233524;-70
2023/05/18 02:57:27;;;;;;;12.05;3.30;;;7.70;99.90;;;;;;4984607;28;21713;-69
2023/05/18 02:59:53;;;;;;;13.88;3.38;;;7.70;99.90;;;;;;4945978;28;207550;-70
2023/05/18 03:02:21;;;;;;;12.07;2.97;;;7.70;99.90;;;;;;5008960;28;20076;-69
2023/05/18 03:04:52;;;;;;;12.40;2.80;;;7.80;99.90;;;;;;4980328;28;209863;-70
2023/05/18 03:07:20;;;;;;;10.85;2.95;;;7.70;99.90;;;;;;5005652;28;20693;-69
2023/05/18 03:09:46;;;;;;;15.25;3.22;;;7.80;99.90;;;;;;4951696;28;207948;-69
2023/05/18 03:12:12;;;;;;;14.38;3.15;;;7.70;99.90;;;;;;4989767;28;20408;-69
2023/05/18 03:14:38;;;;;;;9.18;2.60;;;7.70;99.90;;;;;;4961655;28;207603;-69
2023/05/18 03:17:04;;;;;;;13.98;3.35;;;7.80;99.90;;;;;;4991929;28;20054;-70
2023/05/18 03:19:33;;;;;;;15.77;3.25;;;7.80;99.90;;;;;;4963037;28;207418;-71
2023/05/18 03:22:00;;;;;;;13.32;3.13;;;7.80;99.90;;;;;;5009487;28;20073;-70
2023/05/18 03:24:29;;;;;;;15.07;3.45;;;7.80;99.90;;;;;;4969467;28;209974;-70
2023/05/18 03:26:55;;;;;;;13.43;3.38;;;7.80;99.90;;;;;;5012428;28;20050;-69
2023/05/18 03:29:22;;;;;;;10.80;3.03;;;7.80;99.90;;;;;;4958268;28;209561;-70
2023/05/18 03:31:48;;;;;;;13.70;2.90;;;7.80;99.90;;;;;;4997404;28;20081;-69
2023/05/18 03:34:14;;;;;;;14.10;3.10;;;7.80;99.90;;;;;;4955801;28;212217;-70
2023/05/18 03:36:41;;;;;;;14.45;3.30;;;7.80;99.90;;;;;;5002332;28;20058;-70
2023/05/18 03:39:08;;;;;;;11.45;3.35;;;7.90;99.90;;;;;;4948049;28;207064;-70
2023/05/18 03:41:34;;;;;;;10.02;2.60;;;7.90;99.90;;;;;;4998048;28;20057;-70
2023/05/18 03:44:01;;;;;;;11.88;2.75;;;7.90;99.90;;;;;;4948006;28;210463;-69
2023/05/18 03:46:27;;;;;;;12.05;2.88;;;7.90;99.90;;;;;;4999449;28;20423;-68
2023/05/18 03:48:53;;;;;;;11.70;2.70;;;7.90;99.90;;;;;;4951596;28;209664;-69
2023/05/18 03:51:19;;;;;;;10.15;2.70;;;7.90;99.90;;;;;;5005199;28;20058;-69
2023/05/18 03:53:46;;;;;;;10.85;2.70;;;7.90;99.90;;;;;;4934618;28;210379;-70
2023/05/18 03:56:12;;;;;;;11.70;2.72;;;8.00;99.90;;;;;;5002114;28;20508;-70
2023/05/18 03:58:38;;;;;;;12.05;2.40;;;8.00;99.90;;;;;;4929888;28;207269;-69
2023/05/18 04:01:04;;;;;;;13.02;2.78;;;8.00;99.90;;;;;;5017874;28;20054;-68
2023/05/18 04:03:33;;;;;;;11.32;2.63;;;8.10;99.90;;;;;;4952104;28;207937;-71
2023/05/18 04:05:59;;;;;;;15.73;3.03;;;8.00;99.90;;;;;;4983647;28;20073;-69
2023/05/18 04:08:25;;;;;;;12.00;2.60;;;8.10;99.90;;;;;;4933988;28;210014;-69
2023/05/18 04:10:51;;;;;;;10.40;2.70;;;8.10;99.90;;;;;;5010278;28;20053;-69
2023/05/18 04:13:18;;;;;;;12.88;2.78;;;8.10;99.90;;;;;;4944199;28;208229;-70
2023/05/18 04:15:44;;;;;;;13.00;2.85;;;8.20;99.90;;;;;;5013198;28;20050;-70
2023/05/18 04:18:12;;;;;;;14.02;3.10;;;8.20;99.90;;;;;;4942895;28;210023;-71
2023/05/18 04:20:40;;;;;;;12.50;3.15;;;8.20;99.90;;;;;;5009668;28;20046;-70
2023/05/18 04:23:08;;;;;;;11.98;3.20;;;8.20;99.90;;;;;;4958243;28;210025;-70
2023/05/18 04:25:34;;;;;;;12.27;3.30;;;8.30;99.90;;;;;;5013278;28;20065;-70
2023/05/18 04:28:01;;;;;;;12.00;2.95;;;8.30;99.90;;;;;;4958393;28;208157;-70
2023/05/18 04:30:29;;;;;;;9.70;2.72;;;8.30;99.90;;;;;;4977869;28;20092;-70
2023/05/18 04:32:56;;;;;;;11.20;3.10;;;8.30;99.90;;;;;;4988598;28;20034;-71
2023/05/18 04:35:25;;;;;;;13.27;2.92;;;8.40;99.90;;;;;;4940744;28;79040;-72
2023/05/18 04:37:53;;;;;;;8.85;2.60;;;8.40;99.90;;;;;;4984265;28;20516;-70
2023/05/18 04:40:19;;;;;;;9.57;2.60;;;8.50;99.90;;;;;;4949398;28;209551;-71
2023/05/18 04:42:46;;;;;;;11.48;2.75;;;8.50;99.90;;;;;;4985193;28;20050;-70
2023/05/18 04:45:15;;;;;;;12.10;2.95;;;8.60;99.90;;;;;;4964548;28;212015;-69
2023/05/18 04:47:45;;;;;;;12.48;2.88;;;8.60;99.90;;;;;;4985292;28;20132;-69
2023/05/18 04:50:18;;;;;;;12.32;3.13;;;8.70;99.90;;;;;;4954883;28;206820;-69
2023/05/18 04:52:47;;;;;;;11.93;2.70;;;8.80;99.90;;;;;;4985805;28;20419;-69
2023/05/18 04:55:27;;;;;;;11.02;2.70;;;8.80;99.90;;;;;;4973506;28;207033;-70
2023/05/18 04:57:55;;;;;;;12.15;2.90;;;8.80;99.90;;;;;;4981276;28;20508;-71
2023/05/18 05:00:26;;;;;;;9.30;2.40;;;8.90;99.90;;;;;;4942484;28;257021;-69
2023/05/18 05:02:54;;;;;;;8.73;2.55;;;8.90;99.90;;;;;;4986153;28;20061;-70
2023/05/18 05:05:24;;;;;;;12.93;2.50;;;8.90;99.90;;;;;;4957370;28;83530;-70
2023/05/18 05:07:52;;;;;;;11.88;2.78;;;9.00;99.90;;;;;;4982043;28;20061;-69
2023/05/18 05:10:19;;;;;;;13.02;3.20;;;9.00;99.90;;;;;;4954153;28;209445;-69
2023/05/18 05:12:45;;;;;;;16.52;2.88;;;9.00;99.90;;;;;;4984211;28;20061;-69
2023/05/18 05:15:11;;;;;;;11.32;2.42;;;9.00;99.90;;;;;;4967589;28;207323;-69
2023/05/18 05:17:38;;;;;;;15.77;3.13;;;9.00;99.90;;;;;;5004543;28;20118;-70
2023/05/18 05:20:04;;;;;;;14.63;4.03;;;9.00;99.90;;;;;;4934275;28;207240;-70
2023/05/18 05:22:30;;;;;;;15.02;3.53;;;9.10;99.90;;;;;;4993275;28;20061;-69
2023/05/18 05:24:57;;;;;;;13.48;2.58;;;9.20;99.90;;;;;;4962382;28;207822;-69
2023/05/18 05:27:25;;;;;;;11.30;2.45;;;9.20;99.90;;;;;;5009857;28;20054;-70
2023/05/18 05:29:51;;;;;;;10.75;2.42;;;9.30;99.90;;;;;;4982330;28;210509;-70
2023/05/18 05:32:17;;;;;;;15.02;2.67;;;9.40;99.90;;;;;;5012516;28;20049;-69
2023/05/18 05:34:45;;;;;;;11.32;2.38;;;9.40;99.90;;;;;;4968394;28;223496;-69
2023/05/18 05:37:12;;;;;;;11.50;2.50;;;9.50;99.90;;;;;;4996869;28;20054;-69
2023/05/18 05:39:38;;;;;;;13.93;2.20;;;9.60;99.90;;;;;;4954796;28;210933;-69
2023/05/18 05:42:06;;;;;;;13.73;2.88;;;9.70;99.90;;;;;;4991577;28;20050;-70
2023/05/18 05:44:32;;;;;;;12.15;2.00;;;9.80;99.90;;;;;;4952939;28;206455;-71
2023/05/18 05:46:58;;;;;;;9.75;2.30;;;9.80;99.90;;;;;;4992746;28;20058;-70
2023/05/18 05:49:24;;;;;;;10.90;2.50;;;9.90;99.90;;;;;;4966088;28;209944;-69
2023/05/18 05:51:51;;;;;;;16.33;2.72;;;9.90;99.90;;;;;;5002476;28;20050;-69
2023/05/18 05:54:17;;;;;;;11.30;2.20;;;10.00;99.90;;;;;;4958036;28;208354;-71
2023/05/18 05:56:43;;;;;;;11.07;2.22;;;10.10;99.90;;;;;;4995519;28;20050;-70
2023/05/18 05:59:09;;;;;;;11.65;2.60;;;10.20;99.90;;;;;;4931794;28;206273;-71
2023/05/18 06:01:35;;;;;;;11.75;2.28;;;10.20;99.90;;;;;;5003923;28;20056;-69
2023/05/18 06:04:04;;;;;;;10.18;2.13;;;10.20;99.90;;;;;;4941139;28;207258;-70
2023/05/18 06:06:30;;;;;;;11.65;2.25;;;10.30;99.90;;;;;;4993926;28;20129;-69
2023/05/18 06:08:56;;;;;;;13.30;2.22;;;10.30;99.90;;;;;;4946013;28;207912;-69
2023/05/18 06:11:23;;;;;;;12.18;2.30;;;10.40;99.90;;;;;;5000469;28;20408;-70
2023/05/18 06:13:50;;;;;;;12.13;2.15;;;10.50;99.90;;;;;;4963689;28;207277;-70
2023/05/18 06:16:17;;;;;;;12.57;2.38;;;10.60;99.90;;;;;;5006700;28;20130;-72
2023/05/18 06:18:44;;;;;;;12.90;2.33;;;10.70;99.90;;;;;;4960648;28;210059;-69
2023/05/18 06:21:10;;;;;;;12.07;2.30;;;10.80;99.70;;;;;;5008910;28;20081;-70
2023/05/18 06:23:37;;;;;;;15.05;2.92;;;10.80;99.30;;;;;;4933189;28;205828;-71
2023/05/18 06:26:03;;;;;;;13.40;2.95;;;10.80;99.20;;;;;;5005474;28;20061;-69
2023/05/18 06:28:29;;;;;;;9.77;2.22;;;11.00;99.50;;;;;;4937659;28;208629;-70
2023/05/18 06:30:56;;;;;;;10.88;1.95;;;11.10;99.50;;;;;;5008512;28;20696;-70
2023/05/18 06:33:23;;;;;;;12.18;2.38;;;11.30;99.60;;;;;;4936420;28;207852;-71
2023/05/18 06:35:49;;;;;;;13.90;2.55;;;11.50;99.10;;;;;;5009376;28;20061;-71
2023/05/18 06:38:16;;;;;;;12.93;2.60;;;11.60;98.80;;;;;;4935332;28;207660;-72
2023/05/18 06:40:43;;;;;;;14.80;2.55;;;11.60;98.70;;;;;;5000574;28;20038;-70
2023/05/18 06:43:09;;;;;;;11.57;2.38;;;11.70;98.70;;;;;;4946849;28;211029;-70
2023/05/18 06:45:35;;;;;;;14.68;2.65;;;11.80;98.60;;;;;;5004085;28;20557;-69
2023/05/18 06:48:01;;;;;;;12.07;2.00;;;11.90;98.30;;;;;;4948547;28;210719;-69
2023/05/18 06:50:27;;;;;;;14.15;2.45;;;12.00;98.40;;;;;;4976838;28;20046;-71
2023/05/18 06:52:53;;;;;;;13.45;2.72;;;12.10;98.00;;;;;;5006115;28;20565;-70
2023/05/18 06:55:20;;;;;;;10.98;2.13;;;12.00;97.90;;;;;;4962640;28;206623;-70
2023/05/18 06:57:46;;;;;;;15.10;2.47;;;12.10;97.70;;;;;;5005960;28;20137;-70
2023/05/18 07:00:12;;;;;;;12.90;2.50;;;12.10;97.40;;;;;;4945709;28;212602;-70
2023/05/18 07:02:39;;;;;;;12.13;2.42;;;12.20;97.60;;;;;;5006364;28;20060;-69
2023/05/18 07:05:07;;;;;;;16.92;2.53;;;12.10;97.50;;;;;;4953537;28;205853;-70
2023/05/18 07:07:35;;;;;;;11.65;2.60;;;12.20;97.40;;;;;;4984173;28;20059;-69
2023/05/18 07:10:02;;;;;;;12.90;2.63;;;12.20;97.40;;;;;;4961094;28;212282;-70
2023/05/18 07:12:28;;;;;;;10.32;2.30;;;12.30;96.90;;;;;;4985015;28;20530;-71
2023/05/18 07:14:55;;;;;;;11.02;2.35;;;12.50;97.20;;;;;;4953453;28;213126;-71
2023/05/18 07:17:21;;;;;;;14.65;2.30;;;12.70;97.10;;;;;;4981001;28;20051;-70
2023/05/18 07:19:47;;;;;;;16.25;2.78;;;12.80;97.20;;;;;;4949210;28;213891;-70
2023/05/18 07:22:13;;;;;;;13.30;2.60;;;13.00;96.90;;;;;;4999698;28;20053;-70
2023/05/18 07:24:39;;;;;;;13.32;2.78;;;13.00;97.00;;;;;;4956421;28;212205;-69
2023/05/18 07:27:05;;;;;;;14.52;2.30;;;13.10;96.80;;;;;;4986410;28;20499;-69
2023/05/18 07:29:32;;;;;;;16.17;3.05;;;13.20;96.70;;;;;;4962236;28;205385;-70
2023/05/18 07:31:58;;;;;;;11.95;2.30;;;13.30;96.80;;;;;;5001381;28;20414;-70
2023/05/18 07:34:26;;;;;;;14.75;2.20;;;13.30;96.60;;;;;;4969376;28;206859;-69
2023/05/18 07:36:52;;;;;;;12.35;2.53;;;13.50;96.70;;;;;;5007540;28;20083;-70
2023/05/18 07:39:18;;;;;;;16.00;2.40;;;13.50;95.80;;;;;;4963144;28;209862;-69
2023/05/18 07:41:46;;;;;;;12.07;2.55;;;13.40;95.60;;;;;;5007274;28;20037;-70
2023/05/18 07:44:13;;;;;;;12.73;2.20;;;13.30;96.00;;;;;;4949271;28;216152;-67
2023/05/18 07:46:39;;;;;;;12.57;2.58;;;13.20;96.30;;;;;;4990113;28;20415;-69
2023/05/18 07:49:05;;;;;;;12.25;2.40;;;13.30;96.20;;;;;;4959411;28;206839;-68
2023/05/18 07:51:31;;;;;;;12.95;2.45;;;13.30;96.20;;;;;;4994227;28;20053;-68
2023/05/18 07:53:57;;;;;;;12.77;2.30;;;13.20;96.00;;;;;;4943073;28;209486;-68
2023/05/18 07:56:24;;;;;;;15.00;2.97;;;13.30;96.00;;;;;;5015702;28;20058;-70
2023/05/18 07:58:51;;;;;;;10.07;2.30;;;13.20;95.90;;;;;;4942963;28;211321;-69
2023/05/18 08:01:17;;;;;;;11.95;2.35;;;13.20;96.00;;;;;;5020071;28;20046;-69
2023/05/18 08:03:43;;;;;;;11.38;2.50;;;13.30;96.10;;;;;;4948473;28;223179;-69
2023/05/18 08:06:09;;;;;;;9.93;2.47;;;13.20;95.90;;;;;;5005745;28;20052;-70
2023/05/18 08:08:36;;;;;;;9.73;2.00;;;13.30;95.70;;;;;;4946902;28;280571;-69
2023/05/18 08:11:04;;;;;;;14.40;2.70;;;12.90;94.90;;;;;;5013793;28;20053;-69
2023/05/18 08:13:30;;;;;;;12.23;2.45;;;13.00;95.40;;;;;;4947368;28;214546;-69
2023/05/18 08:15:56;;;;;;;10.88;2.13;;;13.20;95.20;;;;;;5019814;28;20467;-68
2023/05/18 08:18:22;;;;;;;11.43;2.42;;;13.00;95.30;;;;;;4950117;28;213262;-68
2023/05/18 08:20:48;;;;;;;9.93;2.20;;;13.10;95.40;;;;;;5008253;28;20054;-68
2023/05/18 08:23:14;;;;;;;10.70;2.00;;;13.20;95.30;;;;;;4932326;28;212199;-69
2023/05/18 08:25:40;;;;;;;12.07;2.65;;;13.30;94.60;;;;;;5005421;28;20049;-69
2023/05/18 08:28:07;;;;;;;12.60;2.20;;;13.30;94.80;;;;;;4929376;28;210973;-69
2023/05/18 08:30:33;;;;;;;11.07;2.47;;;13.40;94.90;;;;;;5011530;28;20578;-69
2023/05/18 08:32:59;;;;;;;10.05;2.10;;;13.70;94.90;;;;;;4974886;28;210815;-68
2023/05/18 08:35:25;;;;;;;11.25;2.20;;;13.90;94.30;;;;;;4961416;28;20065;-69
2023/05/18 08:37:51;;;;;;;14.85;2.40;;;13.80;93.90;;;;;;4987604;28;20112;-70
2023/05/18 08:40:17;;;;;;;10.10;2.30;;;13.90;94.10;;;;;;4951356;28;215681;-69
2023/05/18 08:42:47;;;;;;;10.57;2.17;;;14.10;94.30;;;;;;4983323;28;20050;-69
2023/05/18 08:45:22;;;;;;;11.98;2.10;;;14.40;94.30;;;;;;4949724;28;214894;-70
2023/05/18 08:47:50;;;;;;;10.63;2.00;;;14.80;94.20;;;;;;4989227;28;20046;-70
2023/05/18 08:50:20;;;;;;;8.80;2.00;;;14.70;93.60;;;;;;4952715;28;213024;-69
2023/05/18 08:52:47;;;;;;;11.82;2.30;;;15.10;94.00;;;;;;4995574;28;20046;-69
2023/05/18 08:55:16;;;;;;;10.70;2.10;;;15.40;93.90;;;;;;4967516;28;227248;-70
2023/05/18 08:57:48;;;;;;;10.80;1.90;;;15.70;93.30;;;;;;4991875;28;20072;-69
2023/05/18 09:00:16;;;;;;;10.50;2.15;;;15.70;93.30;;;;;;4943433;28;214669;-70
2023/05/18 09:02:42;;;;;;;11.70;2.30;;;16.00;93.60;;;;;;4981935;28;20066;-69
2023/05/18 09:05:11;;;;;;;11.48;2.38;;;16.40;92.90;;;;;;4957891;28;215799;-69
2023/05/18 09:07:40;;;;;;;13.30;2.10;;;16.40;92.30;;;;;;4989402;28;20047;-68
2023/05/18 09:10:09;;;;;;;10.00;2.00;;;16.30;91.80;;;;;;4958230;28;222320;-69
2023/05/18 09:12:35;;;;;;;11.18;2.10;;;16.40;92.00;;;;;;5035768;28;20050;-69
2023/05/18 09:15:02;;;;;;;10.27;2.03;;;15.80;92.10;;;;;;4959616;28;213001;-69
2023/05/18 09:17:28;;;;;;;10.40;2.00;;;15.60;92.50;;;;;;4982810;28;20061;-69
2023/05/18 09:19:54;;;;;;;11.43;2.22;;;15.40;92.60;;;;;;4949348;28;228769;-71
2023/05/18 09:22:21;;;;;;;8.55;1.98;;;15.50;92.60;;;;;;4996454;28;21209;-70
2023/05/18 09:24:48;;;;;;;11.93;2.08;;;15.60;92.50;;;;;;4932558;28;209761;-70
2023/05/18 09:27:14;;;;;;;10.73;2.20;;;15.60;92.20;;;;;;4993135;28;21150;-70
2023/05/18 09:29:57;;;;;;;9.48;2.10;;;15.40;92.10;;;;;;4953646;28;207955;-70
2023/05/18 09:32:24;;;;;;;11.52;2.25;;;15.60;91.10;;;;;;4980955;28;20058;-69
2023/05/18 09:34:51;;;;;;;10.55;2.05;;;15.00;92.30;;;;;;4936475;28;218066;-70
2023/05/18 09:37:19;;;;;;;11.32;2.17;;;15.30;92.70;;;;;;4982960;28;20685;-69
2023/05/18 09:40:01;;;;;;;10.15;2.30;;;15.60;92.30;;;;;;4948457;28;230342;-69
2023/05/18 09:42:37;;;;;;;10.40;1.95;;;15.80;91.50;;;;;;4980368;28;20050;-70
2023/05/18 09:45:14;;;;;;;9.55;1.90;;;16.60;91.50;;;;;;4959140;28;212891;-70
2023/05/18 09:47:41;;;;;;;8.02;1.77;;;17.10;91.00;;;;;;4978430;28;20054;-72
2023/05/18 09:50:07;;;;;;;11.98;2.28;;;16.90;91.30;;;;;;4937436;28;212787;-72
2023/05/18 09:52:43;;;;;;;14.85;2.22;;;17.20;91.10;;;;;;4983715;28;20102;-70
2023/05/18 09:55:10;;;;;;;11.60;1.80;;;17.20;89.70;;;;;;4950705;28;216333;-70
2023/05/18 09:57:44;;;;;;;12.77;2.00;;;17.40;91.30;;;;;;4986562;28;20046;-70
2023/05/18 10:00:12;;;;;;;9.65;2.08;;;17.40;89.00;;;;;;4929306;28;243125;-73
2023/05/18 10:02:40;;;;;;;11.98;2.10;;;17.80;90.00;;;;;;4975944;28;20062;-72
2023/05/18 10:05:21;;;;;;;12.50;2.25;;;17.00;90.30;;;;;;4958738;28;213478;-70
2023/05/18 10:07:49;;;;;;;9.82;1.98;;;17.50;90.00;;;;;;5002394;28;20053;-69
2023/05/18 10:10:22;;;;;;;10.43;1.98;;;18.00;90.60;;;;;;4938935;28;211547;-69
2023/05/18 10:12:52;;;;;;;11.57;2.08;;;18.10;90.10;;;;;;4979676;28;20054;-70
2023/05/18 10:15:21;;;;;;;10.05;2.28;;;18.90;89.70;;;;;;4960807;28;218487;-69
2023/05/18 10:17:49;;;;;;;12.27;2.30;;;19.60;88.30;;;;;;5003357;28;20045;-70
2023/05/18 10:20:23;;;;;;;11.85;2.08;;;19.60;89.50;;;;;;4940866;28;183817;-70
2023/05/18 10:22:49;;;;;;;10.07;2.15;;;20.40;87.70;;;;;;4987467;28;20058;-70
2023/05/18 10:25:19;;;;;;;11.75;2.33;;;20.90;87.50;;;;;;4971328;28;210978;-71
2023/05/18 10:27:48;;;;;;;10.50;1.95;;;20.70;86.90;;;;;;5005457;28;20061;-70
2023/05/18 10:30:16;;;;;;;12.00;1.88;;;20.60;85.00;;;;;;4925786;28;210564;-69
2023/05/18 10:32:42;;;;;;;9.32;1.92;;;20.80;85.90;;;;;;4986328;28;20065;-71
2023/05/18 10:35:12;;;;;;;15.07;2.30;;;21.00;86.90;;;;;;4937270;28;220372;-69
2023/05/18 10:37:43;;;;;;;13.40;2.28;;;21.10;85.10;;;;;;4983313;28;20065;-70
2023/05/18 10:40:10;;;;;;;11.65;2.20;;;21.00;83.70;;;;;;4955852;28;233434;-70
2023/05/18 10:42:36;;;;;;;8.10;2.00;;;21.00;82.50;;;;;;4980946;28;20055;-70
2023/05/18 10:45:06;;;;;;;10.38;2.13;;;20.70;80.80;;;;;;4947885;28;207598;-69
2023/05/18 10:47:38;;;;;;;9.15;1.85;;;20.90;81.80;;;;;;5001655;28;20062;-69
2023/05/18 10:50:05;;;;;;;10.50;2.03;;;21.00;82.90;;;;;;4957401;28;215550;-71
2023/05/18 10:52:32;;;;;;;10.90;1.90;;;21.30;81.50;;;;;;5011018;28;20077;-70
2023/05/18 10:55:03;;;;;;;10.25;1.70;;;21.60;83.10;;;;;;4950349;28;210724;-69
2023/05/18 10:58:02;;;;;;;9.07;1.75;;;21.90;81.80;;;;;;4989071;28;20377;-71
2023/05/18 11:00:32;;;;;;;11.68;2.42;;;20.90;77.20;;;;;;4911606;28;20045;-72
2023/05/18 11:03:00;;;;;;;9.57;2.10;;;20.00;81.70;;;;;;4961408;28;220029;-72
2023/05/18 11:05:26;;;;;;;10.38;1.88;;;20.10;79.80;;;;;;4978507;28;20041;-72
2023/05/18 11:08:04;;;;;;;8.75;2.00;;;19.90;80.20;;;;;;4999152;28;20054;-71
2023/05/18 11:10:42;;;;;;;11.90;1.85;;;20.00;80.40;;;;;;4934352;28;206117;-71
2023/05/18 11:13:12;;;;;;;13.80;2.20;;;20.00;80.50;;;;;;4931340;28;215460;-71
2023/05/18 11:15:53;;;;;;;10.88;2.13;;;20.70;80.30;;;;;;5018089;28;20522;-71
2023/05/18 11:18:25;;;;;;;11.18;1.95;;;21.10;78.40;;;;;;4958533;28;214140;-70
2023/05/18 11:20:51;;;;;;;7.30;1.60;;;21.50;80.10;;;;;;5003353;28;20093;-71
2023/05/18 11:23:19;;;;;;;19.47;2.30;;;21.80;80.00;;;;;;4957731;28;212949;-71
2023/05/18 11:25:49;;;;;;;10.02;2.13;;;22.30;79.90;;;;;;5004284;28;20882;-70
2023/05/18 11:28:15;;;;;;;11.43;2.10;;;22.60;76.30;;;;;;4922620;28;213312;-70
2023/05/18 11:30:41;;;;;;;9.80;2.20;;;22.00;79.20;;;;;;4996967;28;20060;-70
2023/05/18 11:33:21;;;;;;;8.87;1.87;;;21.90;79.00;;;;;;4954440;28;210928;-70
2023/05/18 11:36:05;;;;;;;9.43;1.90;;;21.30;78.80;;;;;;5027777;28;20064;-71
2023/05/18 11:39:07;;;;;;;8.40;1.98;;;21.40;77.20;;;;;;4949450;28;211727;-71
2023/05/18 11:41:40;;;;;;;10.88;2.03;;;20.90;76.40;;;;;;4990383;28;20058;-72
2023/05/18 11:44:15;;;;;;;13.40;2.30;;;20.80;78.40;;;;;;4944126;28;208612;-71
2023/05/18 11:46:57;;;;;;;13.10;2.42;;;21.00;78.60;;;;;;4990525;28;20055;-70
2023/05/18 11:49:43;;;;;;;10.05;1.95;;;21.50;79.40;;;;;;4954015;28;214027;-71
2023/05/18 11:52:12;;;;;;;10.05;1.92;;;21.70;77.80;;;;;;5006713;28;20058;-71
2023/05/18 11:54:40;;;;;;;8.68;1.90;;;21.90;79.20;;;;;;4944601;28;210216;-72
2023/05/18 11:57:07;;;;;;;10.77;2.22;;;21.60;76.70;;;;;;4982489;28;20076;-71
2023/05/18 11:59:41;;;;;;;8.77;2.00;;;20.90;77.20;;;;;;4956746;28;213677;-72
2023/05/18 12:02:12;;;;;;;10.32;2.00;;;20.20;77.30;;;;;;5000011;28;20053;-73
2023/05/18 12:05:01;;;;;;;9.32;2.20;;;20.40;78.00;;;;;;4966548;28;207219;-70
2023/05/18 12:07:30;;;;;;;10.98;2.03;;;20.10;77.20;;;;;;4987227;28;20061;-72
2023/05/18 12:10:00;;;;;;;9.73;2.03;;;20.60;78.90;;;;;;4962089;28;217984;-69
2023/05/18 12:12:27;;;;;;;9.18;2.28;;;21.30;79.20;;;;;;4994430;28;20065;-69
2023/05/18 12:14:58;;;;;;;9.75;2.22;;;21.50;78.30;;;;;;4944411;28;207387;-69
2023/05/18 12:17:43;;;;;;;9.82;2.10;;;21.00;77.10;;;;;;4979924;28;20061;-69
2023/05/18 12:20:12;;;;;;;9.10;2.10;;;20.60;75.90;;;;;;4965920;28;209664;-69
2023/05/18 12:22:43;;;;;;;10.25;2.33;;;20.20;76.80;;;;;;4997586;28;20065;-69
2023/05/18 12:25:10;;;;;;;9.25;2.00;;;19.80;78.00;;;;;;4971177;28;215942;-69
2023/05/18 12:27:40;;;;;;;9.05;2.20;;;20.30;78.10;;;;;;4972892;28;20061;-69
2023/05/18 12:30:20;;;;;;;10.15;2.13;;;20.20;77.10;;;;;;4951825;28;212861;-70
2023/05/18 12:32:53;;;;;;;8.83;2.10;;;20.00;76.30;;;;;;4971220;28;20054;-70
2023/05/18 12:35:27;;;;;;;11.45;2.40;;;20.00;77.10;;;;;;4955050;28;204612;-69
2023/05/18 12:37:56;;;;;;;8.93;1.98;;;20.40;77.50;;;;;;5002465;28;20044;-69
2023/05/18 12:40:22;;;;;;;12.32;2.13;;;20.70;78.00;;;;;;4941126;28;120306;-70
2023/05/18 12:42:52;;;;;;;9.30;2.20;;;20.80;76.50;;;;;;4985370;28;20069;-70
2023/05/18 12:45:23;;;;;;;11.82;2.42;;;20.80;77.40;;;;;;4908084;28;215180;-70